createdAt,value
2019-05-07T00:02:05.852Z,99786.13
2019-05-07T00:04:35.338Z,99798.67
2019-05-07T00:07:05.046Z,99782.34
2019-05-07T00:09:34.823Z,99792.91
2019-05-07T00:12:05.304Z,99790.05
2019-05-07T00:14:35.325Z,99794.42
2019-05-07T00:17:04.747Z,99781.13
2019-05-07T00:19:34.208Z,99789.66
2019-05-07T00:22:03.590Z,99786.63
2019-05-07T00:24:33.285Z,99784.66
2019-05-07T00:27:03.012Z,99797.36
2019-05-07T00:29:32.764Z,99796.68
2019-05-07T00:32:03.027Z,99783.81
2019-05-07T00:34:34.161Z,99785.71
2019-05-07T00:37:22.033Z,99792.64
2019-05-07T00:40:09.637Z,99798.15
2019-05-07T00:42:56.829Z,99803.44
2019-05-07T00:45:27.771Z,99804.43
2019-05-07T00:47:57.010Z,99798.90
2019-05-07T00:50:28.052Z,99804.94
2019-05-07T00:52:57.417Z,99803.58
2019-05-07T00:55:26.819Z,99803.79
2019-05-07T00:57:56.229Z,99804.18
2019-05-07T01:00:25.588Z,99807.33
2019-05-07T01:02:54.962Z,99805.68
2019-05-07T01:05:24.309Z,99805.68
2019-05-07T01:07:53.610Z,99806.43
2019-05-07T01:10:22.902Z,99807.72
2019-05-07T01:12:53.162Z,99808.17
2019-05-07T01:15:31.012Z,99815.11
2019-05-07T01:17:53.701Z,99814.22
2019-05-07T01:20:22.962Z,99817.17
2019-05-07T01:22:54.478Z,99814.89
2019-05-07T01:25:23.350Z,99817.17
2019-05-07T01:27:53.344Z,99819.14
2019-05-07T01:30:23.235Z,99821.72
2019-05-07T01:32:54.420Z,99823.75
2019-05-07T01:35:27.984Z,99829.61
2019-05-07T01:37:57.456Z,99829.61
2019-05-07T01:40:26.825Z,99829.36
2019-05-07T01:42:56.089Z,99832.25
2019-05-07T01:45:25.480Z,99842.47
2019-05-07T01:47:54.779Z,99834.89
2019-05-07T01:50:24.091Z,99837.53
2019-05-07T01:52:53.496Z,99841.89
2019-05-07T01:55:22.810Z,99837.22
2019-05-07T01:57:52.408Z,99844.86
2019-05-07T02:00:22.512Z,99843.50
2019-05-07T02:02:59.323Z,99844.86
2019-05-07T02:05:36.070Z,99839.32
2019-05-07T02:08:07.089Z,99845.32
2019-05-07T02:10:46.661Z,99848.19
2019-05-07T02:13:15.977Z,99841.39
2019-05-07T02:15:57.235Z,99848.64
2019-05-07T02:18:16.337Z,99855.08
2019-05-07T02:20:45.613Z,99853.72
2019-05-07T02:23:14.902Z,99856.68
2019-05-07T02:25:44.257Z,99858.65
2019-05-07T02:28:13.582Z,99861.22
2019-05-07T02:30:44.365Z,99862.51
2019-05-07T02:33:14.177Z,99864.19
2019-05-07T02:35:44.121Z,99867.22
2019-05-07T02:38:23.032Z,99864.12
2019-05-07T02:41:02.707Z,99869.93
2019-05-07T02:43:33.480Z,99869.14
2019-05-07T02:46:21.555Z,99868.64
2019-05-07T02:48:44.135Z,99866.50
2019-05-07T02:51:17.982Z,99866.14
2019-05-07T02:53:57.563Z,99868.82
2019-05-07T02:56:26.970Z,99870.43
2019-05-07T02:58:56.336Z,99880.65
2019-05-07T03:01:25.832Z,99879.96
2019-05-07T03:03:55.205Z,99885.03
2019-05-07T03:06:24.766Z,99888.04
2019-05-07T03:08:54.135Z,99885.24
2019-05-07T03:11:23.637Z,99888.17
2019-05-07T03:13:53.954Z,99883.89
2019-05-07T03:16:38.713Z,99886.59
2019-05-07T03:18:54.569Z,99888.31
2019-05-07T03:21:23.943Z,99892.17
2019-05-07T03:24:03.926Z,99895.59
2019-05-07T03:26:34.982Z,99902.02
2019-05-07T03:29:05.986Z,99900.34
2019-05-07T03:31:46.859Z,99899.95
2019-05-07T03:34:16.618Z,99911.16
2019-05-07T03:36:49.030Z,99912.73
2019-05-07T03:39:18.774Z,99904.80
2019-05-07T03:41:48.275Z,99914.34
2019-05-07T03:44:19.369Z,99916.23
2019-05-07T03:47:01.147Z,99924.44
2019-05-07T03:49:33.866Z,99917.72
2019-05-07T03:52:04.228Z,99926.19
2019-05-07T03:54:33.991Z,99919.77
2019-05-07T03:57:10.799Z,99923.16
2019-05-07T03:59:34.950Z,99932.06
2019-05-07T04:02:05.491Z,99932.81
2019-05-07T04:04:34.894Z,99935.39
2019-05-07T04:07:04.462Z,99935.00
2019-05-07T04:09:33.955Z,99946.50
2019-05-07T04:12:04.177Z,99946.50
2019-05-07T04:14:34.367Z,99948.87
2019-05-07T04:17:14.525Z,99954.80
2019-05-07T04:19:35.276Z,99958.59
2019-05-07T04:22:06.800Z,99960.77
2019-05-07T04:24:54.131Z,99957.04
2019-05-07T04:27:27.733Z,99961.36
2019-05-07T04:29:56.972Z,99961.30
2019-05-07T04:32:27.919Z,99959.94
2019-05-07T04:34:58.950Z,99966.30
2019-05-07T04:37:28.315Z,99968.94
2019-05-07T04:39:57.671Z,99971.37
2019-05-07T04:42:27.170Z,99971.05
2019-05-07T04:44:56.514Z,99976.81
2019-05-07T04:47:38.621Z,99980.25
2019-05-07T04:49:56.991Z,99984.92
2019-05-07T04:52:34.033Z,99977.61
2019-05-07T04:55:04.408Z,99983.31
2019-05-07T04:57:33.918Z,99986.94
2019-05-07T05:00:05.090Z,99983.70
2019-05-07T05:02:43.482Z,99991.88
2019-05-07T05:05:15.354Z,99988.78
2019-05-07T05:07:44.785Z,99989.86
2019-05-07T05:10:14.185Z,99993.39
2019-05-07T05:12:44.076Z,99998.34
2019-05-07T05:15:14.317Z,99998.66
2019-05-07T05:17:50.510Z,100002.53
2019-05-07T05:20:15.918Z,99999.89
2019-05-07T05:22:50.173Z,100008.95
2019-05-07T05:25:32.946Z,100005.92
2019-05-07T05:28:02.345Z,100012.48
2019-05-07T05:30:45.339Z,100015.38
2019-05-07T05:33:14.752Z,100009.70
2019-05-07T05:35:44.134Z,100012.53
2019-05-07T05:38:13.436Z,100020.61
2019-05-07T05:40:43.007Z,100009.44
2019-05-07T05:43:17.261Z,100015.73
2019-05-07T05:45:48.305Z,100015.80
2019-05-07T05:48:17.598Z,100011.81
2019-05-07T05:51:02.659Z,100018.50
2019-05-07T05:53:43.394Z,100017.14
2019-05-07T05:56:32.392Z,100013.08
2019-05-07T05:59:12.448Z,100015.06
2019-05-07T06:01:49.365Z,100005.91
2019-05-07T06:04:35.405Z,100020.66
2019-05-07T06:07:11.056Z,100009.55
2019-05-07T06:09:39.037Z,100008.55
2019-05-07T06:12:22.275Z,100018.78
2019-05-07T06:14:53.895Z,100019.56
2019-05-07T06:17:43.179Z,100017.89
2019-05-07T06:20:14.519Z,100022.44
2019-05-07T06:23:02.031Z,100021.52
2019-05-07T06:25:33.423Z,100019.56
2019-05-07T06:28:02.775Z,100025.53
2019-05-07T06:30:33.798Z,100020.78
2019-05-07T06:33:03.245Z,100024.56
2019-05-07T06:35:32.652Z,100034.27
2019-05-07T06:38:04.266Z,100037.23
2019-05-07T06:40:44.066Z,100033.48
2019-05-07T06:43:15.136Z,100049.72
2019-05-07T06:45:46.163Z,100029.05
2019-05-07T06:48:33.078Z,100029.80
2019-05-07T06:50:59.574Z,100019.82
2019-05-07T06:53:33.359Z,100023.79
2019-05-07T06:56:03.308Z,100023.86
2019-05-07T06:58:46.408Z,100026.00
2019-05-07T07:01:23.243Z,100022.89
2019-05-07T07:04:02.346Z,100028.33
2019-05-07T07:06:39.114Z,100027.51
2019-05-07T07:09:22.561Z,100029.62
2019-05-07T07:11:53.767Z,100035.52
2019-05-07T07:14:24.111Z,100031.30
2019-05-07T07:16:53.538Z,100036.38
2019-05-07T07:19:23.365Z,100032.98
2019-05-07T07:21:53.040Z,100036.08
2019-05-07T07:24:22.455Z,100039.88
2019-05-07T07:26:52.832Z,100036.27
2019-05-07T07:29:24.251Z,100039.91
2019-05-07T07:31:57.875Z,100033.61
2019-05-07T07:34:28.938Z,100031.34
2019-05-07T07:37:09.750Z,100037.77
2019-05-07T07:39:37.038Z,100038.00
2019-05-07T07:42:08.046Z,100037.84
2019-05-07T07:44:37.454Z,100044.24
2019-05-07T07:47:07.023Z,100040.20
2019-05-07T07:49:36.704Z,100058.20
2019-05-07T07:52:06.175Z,100036.61
2019-05-07T07:54:35.617Z,100049.55
2019-05-07T07:57:06.568Z,100047.73
2019-05-07T07:59:48.648Z,100042.78
2019-05-07T08:02:25.069Z,100049.74
2019-05-07T08:04:54.402Z,100041.35
2019-05-07T08:07:23.834Z,100050.61
2019-05-07T08:09:53.546Z,100056.53
2019-05-07T08:12:22.993Z,100060.79
2019-05-07T08:14:52.367Z,100054.23
2019-05-07T08:17:23.305Z,100070.72
2019-05-07T08:19:52.782Z,100050.24
2019-05-07T08:22:22.727Z,100056.73
2019-05-07T08:24:52.297Z,100059.46
2019-05-07T08:27:22.339Z,100056.75
2019-05-07T08:29:52.584Z,100061.41
2019-05-07T08:32:32.802Z,100067.17
2019-05-07T08:35:03.759Z,100060.47
2019-05-07T08:37:33.179Z,100061.29
2019-05-07T08:40:03.218Z,100072.73
2019-05-07T08:42:32.813Z,100076.20
2019-05-07T08:45:06.842Z,100070.78
2019-05-07T08:47:37.974Z,100083.20
2019-05-07T08:50:07.418Z,100076.14
2019-05-07T08:52:39.145Z,100078.58
2019-05-07T08:55:09.461Z,100075.44
2019-05-07T08:57:38.926Z,100074.91
2019-05-07T09:00:09.178Z,100077.97
2019-05-07T09:02:38.595Z,100080.64
2019-05-07T09:05:09.294Z,100084.63
2019-05-07T09:07:38.861Z,100080.18
2019-05-07T09:10:08.693Z,100084.42
2019-05-07T09:12:38.072Z,100079.82
2019-05-07T09:15:09.061Z,100089.52
2019-05-07T09:17:38.477Z,100088.69
2019-05-07T09:20:09.290Z,100084.03
2019-05-07T09:22:38.829Z,100085.20
2019-05-07T09:25:08.748Z,100086.62
2019-05-07T09:27:42.543Z,100084.61
2019-05-07T09:30:14.295Z,100091.09
2019-05-07T09:32:45.384Z,100093.20
2019-05-07T09:35:33.193Z,100092.95
2019-05-07T09:38:03.173Z,100095.16
2019-05-07T09:40:32.798Z,100098.61
2019-05-07T09:43:02.615Z,100101.73
2019-05-07T09:45:32.913Z,100096.83
2019-05-07T09:48:02.986Z,100099.98
2019-05-07T09:50:32.769Z,100108.67
2019-05-07T09:53:02.479Z,100105.63
2019-05-07T09:55:32.703Z,100107.65
2019-05-07T09:58:02.263Z,100107.73
2019-05-07T10:00:33.267Z,100114.14
2019-05-07T10:03:03.187Z,100114.30
2019-05-07T10:05:32.565Z,100118.29
2019-05-07T10:08:02.075Z,100121.57
2019-05-07T10:10:32.887Z,100121.36
2019-05-07T10:13:07.176Z,100117.06
2019-05-07T10:15:36.954Z,100125.09
2019-05-07T10:18:12.353Z,100129.63
2019-05-07T10:20:45.551Z,100128.89
2019-05-07T10:23:22.965Z,100127.59
2019-05-07T10:25:53.140Z,100121.77
2019-05-07T10:28:23.103Z,100120.98
2019-05-07T10:30:52.827Z,100128.58
2019-05-07T10:33:22.966Z,100128.50
2019-05-07T10:35:53.023Z,100133.11
2019-05-07T10:38:22.721Z,100133.02
2019-05-07T10:40:52.169Z,100134.31
2019-05-07T10:43:22.240Z,100137.92
2019-05-07T10:46:09.320Z,100140.05
2019-05-07T10:48:52.273Z,100131.45
2019-05-07T10:51:21.890Z,100141.60
2019-05-07T10:53:51.773Z,100138.40
2019-05-07T10:56:22.329Z,100130.43
2019-05-07T10:58:52.290Z,100136.80
2019-05-07T11:01:23.583Z,100136.98
2019-05-07T11:03:52.958Z,100153.47
2019-05-07T11:06:22.469Z,100134.59
2019-05-07T11:08:52.015Z,100142.09
2019-05-07T11:11:22.344Z,100138.54
2019-05-07T11:13:55.875Z,100139.10
2019-05-07T11:16:25.427Z,100144.20
2019-05-07T11:18:54.831Z,100144.35
2019-05-07T11:21:32.986Z,100137.58
2019-05-07T11:24:03.251Z,100140.07
2019-05-07T11:26:33.118Z,100145.34
2019-05-07T11:29:02.918Z,100140.67
2019-05-07T11:31:33.078Z,100147.36
2019-05-07T11:34:03.080Z,100155.48
2019-05-07T11:36:34.475Z,100153.63
2019-05-07T11:39:05.697Z,100159.61
2019-05-07T11:41:38.938Z,100157.47
2019-05-07T11:44:12.281Z,100163.73
2019-05-07T11:46:44.455Z,100159.09
2019-05-07T11:49:16.219Z,100165.48
2019-05-07T11:51:47.424Z,100171.52
2019-05-07T11:54:16.855Z,100165.09
2019-05-07T11:56:46.364Z,100161.69
2019-05-07T11:59:16.041Z,100158.28
2019-05-07T12:01:52.611Z,100158.34
2019-05-07T12:04:21.540Z,100163.91
2019-05-07T12:06:52.071Z,100160.04
2019-05-07T12:09:21.837Z,100153.63
2019-05-07T12:11:52.063Z,100150.73
2019-05-07T12:14:31.287Z,100162.30
2019-05-07T12:16:52.746Z,100156.69
2019-05-07T12:19:22.705Z,100161.58
2019-05-07T12:21:52.721Z,100158.99
2019-05-07T12:24:22.430Z,100150.45
2019-05-07T12:26:52.311Z,100154.38
2019-05-07T12:29:22.153Z,100156.70
2019-05-07T12:32:08.592Z,100163.45
2019-05-07T12:34:41.974Z,100149.55
2019-05-07T12:37:12.277Z,100154.50
2019-05-07T12:39:42.393Z,100147.95
2019-05-07T12:42:12.213Z,100147.41
2019-05-07T12:44:42.574Z,100146.19
2019-05-07T12:47:12.241Z,100136.92
2019-05-07T12:49:42.872Z,100148.13
2019-05-07T12:52:16.938Z,100146.76
2019-05-07T12:54:47.966Z,100150.89
2019-05-07T12:57:17.360Z,100161.42
2019-05-07T12:59:49.543Z,100155.74
2019-05-07T13:02:40.047Z,100143.11
2019-05-07T13:05:06.439Z,100143.67
2019-05-07T13:07:39.176Z,100136.80
2019-05-07T13:10:09.295Z,100137.53
2019-05-07T13:12:38.763Z,100131.83
2019-05-07T13:15:21.954Z,100136.60
2019-05-07T13:17:41.707Z,100132.17
2019-05-07T13:20:12.192Z,100131.69
2019-05-07T13:22:42.722Z,100135.95
2019-05-07T13:25:12.773Z,100128.89
2019-05-07T13:27:42.927Z,100135.16
2019-05-07T13:30:12.972Z,100128.97
2019-05-07T13:32:45.001Z,100133.86
2019-05-07T13:35:14.897Z,100131.02
2019-05-07T13:37:52.500Z,100128.21
2019-05-07T13:40:23.558Z,100125.23
2019-05-07T13:42:57.257Z,100127.50
2019-05-07T13:45:31.753Z,100134.69
2019-05-07T13:48:03.269Z,100137.06
2019-05-07T13:50:32.710Z,100136.59
2019-05-07T13:53:02.100Z,100129.70
2019-05-07T13:55:32.356Z,100137.59
2019-05-07T13:58:02.004Z,100132.45
2019-05-07T14:00:33.203Z,100135.64
2019-05-07T14:03:03.394Z,100124.02
2019-05-07T14:05:33.090Z,100130.33
2019-05-07T14:08:04.574Z,100137.06
2019-05-07T14:10:35.268Z,100122.61
2019-05-07T14:13:12.604Z,100124.27
2019-05-07T14:15:35.826Z,100127.70
2019-05-07T14:18:05.890Z,100127.23
2019-05-07T14:20:35.273Z,100123.81
2019-05-07T14:23:04.824Z,100131.13
2019-05-07T14:25:35.444Z,100122.14
2019-05-07T14:28:04.904Z,100122.84
2019-05-07T14:30:34.450Z,100127.12
2019-05-07T14:33:08.266Z,100136.12
2019-05-07T14:35:39.385Z,100123.39
2019-05-07T14:38:13.875Z,100134.03
2019-05-07T14:40:43.663Z,100128.08
2019-05-07T14:43:32.792Z,100130.72
2019-05-07T14:46:02.721Z,100126.11
2019-05-07T14:48:35.934Z,100125.66
2019-05-07T14:51:04.464Z,100130.31
2019-05-07T14:53:34.084Z,100132.16
2019-05-07T14:56:03.949Z,100125.70
2019-05-07T14:58:33.476Z,100120.64
2019-05-07T15:01:02.848Z,100135.00
2019-05-07T15:03:32.309Z,100136.09
2019-05-07T15:06:02.282Z,100133.00
2019-05-07T15:08:32.419Z,100132.13
2019-05-07T15:11:02.742Z,100132.25
2019-05-07T15:13:33.254Z,100136.01
2019-05-07T15:16:03.204Z,100130.86
2019-05-07T15:18:48.479Z,100126.47
2019-05-07T15:21:18.044Z,100126.95
2019-05-07T15:23:48.653Z,100128.67
2019-05-07T15:26:18.234Z,100138.05
2019-05-07T15:28:52.235Z,100130.29
2019-05-07T15:31:35.495Z,100128.66
2019-05-07T15:34:04.933Z,100134.09
2019-05-07T15:36:34.282Z,100133.50
2019-05-07T15:39:05.176Z,100129.00
2019-05-07T15:41:34.563Z,100129.43
2019-05-07T15:44:03.865Z,100127.72
2019-05-07T15:46:33.307Z,100129.46
2019-05-07T15:49:02.730Z,100124.28
2019-05-07T15:51:32.776Z,100130.78
2019-05-07T15:54:03.532Z,100128.41
2019-05-07T15:56:33.119Z,100136.02
2019-05-07T15:59:02.428Z,100134.95
2019-05-07T16:01:31.833Z,100135.87
2019-05-07T16:04:02.790Z,100131.17
2019-05-07T16:06:32.533Z,100134.86
2019-05-07T16:09:04.430Z,100138.39
2019-05-07T16:11:33.129Z,100143.41
2019-05-07T16:14:07.218Z,100145.68
2019-05-07T16:16:38.250Z,100148.50
2019-05-07T16:19:09.290Z,100146.80
2019-05-07T16:21:38.667Z,100145.86
2019-05-07T16:24:08.226Z,100148.83
2019-05-07T16:26:37.711Z,100146.12
2019-05-07T16:29:07.176Z,100147.31
2019-05-07T16:31:36.721Z,100148.95
2019-05-07T16:34:06.163Z,100149.34
2019-05-07T16:36:35.541Z,100148.44
2019-05-07T16:39:06.658Z,100150.33
2019-05-07T16:41:36.021Z,100150.61
2019-05-07T16:44:06.002Z,100153.31
2019-05-07T16:46:35.507Z,100151.20
2019-05-07T16:49:04.946Z,100153.38
2019-05-07T16:51:35.998Z,100153.03
2019-05-07T16:54:05.642Z,100157.41
2019-05-07T16:56:36.642Z,100158.39
2019-05-07T16:59:07.941Z,100162.81
2019-05-07T17:01:37.821Z,100163.91
2019-05-07T17:04:07.784Z,100169.70
2019-05-07T17:06:37.221Z,100168.50
2019-05-07T17:09:14.238Z,100167.17
2019-05-07T17:11:43.950Z,100167.69
2019-05-07T17:14:13.419Z,100172.09
2019-05-07T17:16:42.851Z,100170.89
2019-05-07T17:19:13.861Z,100172.30
2019-05-07T17:21:43.362Z,100181.59
2019-05-07T17:24:12.865Z,100186.50
2019-05-07T17:26:42.453Z,100186.77
2019-05-07T17:29:12.191Z,100193.08
2019-05-07T17:31:42.446Z,100198.47
2019-05-07T17:34:12.093Z,100202.76
2019-05-07T17:36:42.180Z,100202.03
2019-05-07T17:39:12.285Z,100203.43
2019-05-07T17:41:42.920Z,100208.64
2019-05-07T17:44:12.751Z,100207.06
2019-05-07T17:46:42.912Z,100209.50
2019-05-07T17:49:13.247Z,100212.68
2019-05-07T17:51:46.069Z,100211.36
2019-05-07T17:54:15.631Z,100222.66
2019-05-07T17:56:45.156Z,100222.31
2019-05-07T17:59:14.528Z,100226.30
2019-05-07T18:01:45.633Z,100231.58
2019-05-07T18:04:15.368Z,100226.77
2019-05-07T18:06:45.142Z,100229.27
2019-05-07T18:09:14.519Z,100234.46
2019-05-07T18:11:44.131Z,100231.33
2019-05-07T18:14:13.556Z,100240.31
2019-05-07T18:16:53.640Z,100239.39
2019-05-07T18:19:23.286Z,100240.50
2019-05-07T18:21:52.867Z,100241.89
2019-05-07T18:24:22.605Z,100250.49
2019-05-07T18:26:52.589Z,100250.20
2019-05-07T18:29:22.605Z,100254.66
2019-05-07T18:32:00.123Z,100257.34
2019-05-07T18:34:31.948Z,100254.47
2019-05-07T18:37:02.143Z,100256.04
2019-05-07T18:39:32.568Z,100254.20
2019-05-07T18:42:02.761Z,100259.19
2019-05-07T18:44:32.428Z,100258.45
2019-05-07T18:47:02.480Z,100265.94
2019-05-07T18:49:32.395Z,100266.69
2019-05-07T18:52:02.850Z,100273.05
2019-05-07T18:54:32.992Z,100280.09
2019-05-07T18:57:03.100Z,100276.48
2019-05-07T18:59:34.325Z,100276.36
2019-05-07T19:02:03.904Z,100275.42
2019-05-07T19:04:33.307Z,100278.02
2019-05-07T19:07:02.761Z,100284.64
2019-05-07T19:09:32.269Z,100280.64
2019-05-07T19:12:03.250Z,100289.44
2019-05-07T19:14:33.405Z,100286.42
2019-05-07T19:17:03.249Z,100290.66
2019-05-07T19:19:32.908Z,100290.39
2019-05-07T19:22:03.215Z,100292.38
2019-05-07T19:24:44.623Z,100289.88
2019-05-07T19:27:04.065Z,100290.87
2019-05-07T19:29:33.582Z,100294.09
2019-05-07T19:32:03.478Z,100292.50
2019-05-07T19:34:32.881Z,100289.73
2019-05-07T19:37:03.687Z,100294.69
2019-05-07T19:39:33.139Z,100294.78
2019-05-07T19:42:02.807Z,100299.62
2019-05-07T19:44:32.217Z,100300.73
2019-05-07T19:47:02.126Z,100303.75
2019-05-07T19:49:32.524Z,100304.00
2019-05-07T19:52:02.404Z,100302.05
2019-05-07T19:54:32.387Z,100303.90
2019-05-07T19:57:02.794Z,100306.66
2019-05-07T19:59:32.768Z,100306.66
2019-05-07T20:02:03.944Z,100301.09
2019-05-07T20:04:33.396Z,100301.25
2019-05-07T20:07:02.995Z,100305.95
2019-05-07T20:09:34.044Z,100299.98
2019-05-07T20:12:07.914Z,100295.28
2019-05-07T20:14:36.074Z,100297.80
2019-05-07T20:17:05.834Z,100299.10
2019-05-07T20:19:35.636Z,100300.86
2019-05-07T20:22:06.671Z,100297.14
2019-05-07T20:24:36.184Z,100300.28
2019-05-07T20:27:05.639Z,100298.30
2019-05-07T20:29:37.198Z,100295.79
2019-05-07T20:32:06.892Z,100301.59
2019-05-07T20:34:37.198Z,100306.02
2019-05-07T20:37:07.363Z,100301.36
2019-05-07T20:39:37.936Z,100304.72
2019-05-07T20:42:07.588Z,100301.91
2019-05-07T20:44:37.051Z,100303.36
2019-05-07T20:47:07.099Z,100302.07
2019-05-07T20:49:36.784Z,100302.70
2019-05-07T20:52:07.072Z,100302.47
2019-05-07T20:54:41.993Z,100304.39
2019-05-07T20:57:13.740Z,100304.23
2019-05-07T20:59:43.325Z,100309.56
2019-05-07T21:02:12.618Z,100308.70
2019-05-07T21:04:42.547Z,100304.55
2019-05-07T21:07:12.439Z,100311.01
2019-05-07T21:09:42.377Z,100311.09
2019-05-07T21:12:12.823Z,100308.19
2019-05-07T21:14:42.569Z,100314.81
2019-05-07T21:17:12.178Z,100313.05
2019-05-07T21:19:42.828Z,100314.42
2019-05-07T21:22:13.142Z,100318.37
2019-05-07T21:24:42.908Z,100316.34
2019-05-07T21:27:12.817Z,100312.98
2019-05-07T21:29:42.502Z,100315.48
2019-05-07T21:32:12.555Z,100312.89
2019-05-07T21:34:42.357Z,100308.35
2019-05-07T21:37:12.691Z,100316.26
2019-05-07T21:39:42.591Z,100318.14
2019-05-07T21:42:14.159Z,100316.92
2019-05-07T21:44:43.171Z,100318.06
2019-05-07T21:47:12.854Z,100321.51
2019-05-07T21:49:43.121Z,100314.66
2019-05-07T21:52:13.288Z,100315.13
2019-05-07T21:54:53.395Z,100315.79
2019-05-07T21:57:27.360Z,100307.48
2019-05-07T22:00:13.619Z,100308.94
2019-05-07T22:02:43.063Z,100309.09
2019-05-07T22:05:12.719Z,100317.75
2019-05-07T22:07:42.281Z,100312.59
2019-05-07T22:10:12.760Z,100318.30
2019-05-07T22:12:42.617Z,100312.82
2019-05-07T22:15:13.068Z,100308.66
2019-05-07T22:17:44.436Z,100310.11
2019-05-07T22:20:13.811Z,100312.77
2019-05-07T22:22:43.636Z,100310.78
2019-05-07T22:25:13.213Z,100308.82
2019-05-07T22:27:42.688Z,100306.75
2019-05-07T22:30:14.238Z,100300.16
2019-05-07T22:32:45.395Z,100303.34
2019-05-07T22:35:19.007Z,100302.59
2019-05-07T22:37:48.498Z,100294.31
2019-05-07T22:40:18.230Z,100303.59
2019-05-07T22:42:47.739Z,100305.55
2019-05-07T22:45:17.237Z,100306.16
2019-05-07T22:47:46.629Z,100308.15
2019-05-07T22:50:16.161Z,100305.41
2019-05-07T22:52:46.100Z,100307.81
2019-05-07T22:55:15.491Z,100304.23
2019-05-07T22:57:52.587Z,100305.83
2019-05-07T23:00:23.810Z,100304.40
2019-05-07T23:02:53.914Z,100301.33
2019-05-07T23:05:23.621Z,100307.56
2019-05-07T23:07:53.009Z,100306.56
2019-05-07T23:10:22.616Z,100315.27
2019-05-07T23:12:52.230Z,100311.16
2019-05-07T23:15:22.593Z,100309.22
2019-05-07T23:17:52.357Z,100313.92
2019-05-07T23:20:24.134Z,100313.23
2019-05-07T23:22:52.931Z,100317.68
2019-05-07T23:25:24.463Z,100313.06
2019-05-07T23:27:53.452Z,100319.25
2019-05-07T23:30:22.854Z,100310.36
2019-05-07T23:32:52.851Z,100318.71
2019-05-07T23:35:22.369Z,100313.76
2019-05-07T23:37:52.956Z,100318.23
2019-05-07T23:40:27.089Z,100310.31
2019-05-07T23:42:58.077Z,100309.16
2019-05-07T23:45:27.450Z,100303.81
2019-05-07T23:47:56.841Z,100299.19
2019-05-07T23:50:26.309Z,100306.67
2019-05-07T23:52:55.608Z,100295.27
2019-05-07T23:55:24.986Z,100296.27
2019-05-07T23:57:54.286Z,100292.53
